sensor_id;sensor_type;location;lat;lon;timestamp;pressure;altitude;pressure_sealevel;temperature;humidity
7182;BME280;3632;42.724;23.298;2023-04-30T00:00:41;95087.06;;;12.19;84.17
7182;BME280;3632;42.724;23.298;2023-04-30T00:03:09;95078.19;;;12.23;84.18
7182;BME280;3632;42.724;23.298;2023-04-30T00:05:36;94571.47;;;8.74;83.84
7182;BME280;3632;42.724;23.298;2023-04-30T00:08:03;94753.00;;;9.52;85.80
7182;BME280;3632;42.724;23.298;2023-04-30T00:10:29;95071.38;;;11.65;86.62
7182;BME280;3632;42.724;23.298;2023-04-30T00:12:56;95027.88;;;11.07;87.73
7182;BME280;3632;42.724;23.298;2023-04-30T00:15:23;95084.34;;;11.33;88.10
7182;BME280;3632;42.724;23.298;2023-04-30T00:17:50;94992.16;;;10.46;89.76
7182;BME280;3632;42.724;23.298;2023-04-30T00:20:18;95088.78;;;10.80;91.13
7182;BME280;3632;42.724;23.298;2023-04-30T00:22:45;94912.63;;;9.71;92.08
7182;BME280;3632;42.724;23.298;2023-04-30T00:25:12;94995.81;;;10.53;91.10
7182;BME280;3632;42.724;23.298;2023-04-30T00:27:39;95086.94;;;11.12;91.28
7182;BME280;3632;42.724;23.298;2023-04-30T00:30:06;94924.50;;;10.12;90.13
7182;BME280;3632;42.724;23.298;2023-04-30T00:32:33;94406.13;;;6.90;90.21
7182;BME280;3632;42.724;23.298;2023-04-30T00:35:00;94930.25;;;10.25;90.93
7182;BME280;3632;42.724;23.298;2023-04-30T00:37:28;95007.13;;;10.61;90.47
7182;BME280;3632;42.724;23.298;2023-04-30T00:39:55;95082.84;;;11.30;90.38
7182;BME280;3632;42.724;23.298;2023-04-30T00:42:22;95082.25;;;11.17;90.62
7182;BME280;3632;42.724;23.298;2023-04-30T00:44:48;95087.44;;;11.06;90.82
7182;BME280;3632;42.724;23.298;2023-04-30T00:47:15;95080.41;;;11.19;90.17
7182;BME280;3632;42.724;23.298;2023-04-30T00:49:42;95073.38;;;11.12;89.06
7182;BME280;3632;42.724;23.298;2023-04-30T00:52:09;95105.88;;;10.89;87.82
7182;BME280;3632;42.724;23.298;2023-04-30T00:54:37;95078.59;;;10.80;89.23
7182;BME280;3632;42.724;23.298;2023-04-30T00:57:04;95077.84;;;10.89;90.25
7182;BME280;3632;42.724;23.298;2023-04-30T00:59:33;95150.22;;;10.13;89.42
7182;BME280;3632;42.724;23.298;2023-04-30T01:02:01;94824.34;;;8.66;90.50
7182;BME280;3632;42.724;23.298;2023-04-30T01:04:28;95093.38;;;10.13;92.20
7182;BME280;3632;42.724;23.298;2023-04-30T01:06:55;95077.53;;;10.20;93.47
7182;BME280;3632;42.724;23.298;2023-04-30T01:09:22;95086.28;;;10.27;93.60
7182;BME280;3632;42.724;23.298;2023-04-30T01:11:59;95095.81;;;10.14;94.88
7182;BME280;3632;42.724;23.298;2023-04-30T01:14:28;95074.72;;;10.23;94.84
7182;BME280;3632;42.724;23.298;2023-04-30T01:17:01;95005.16;;;9.70;94.46
7182;BME280;3632;42.724;23.298;2023-04-30T01:19:37;95102.94;;;10.31;93.47
7182;BME280;3632;42.724;23.298;2023-04-30T01:22:09;95090.50;;;10.06;94.65
7182;BME280;3632;42.724;23.298;2023-04-30T01:25:00;95075.34;;;10.16;95.32
7182;BME280;3632;42.724;23.298;2023-04-30T01:27:53;95175.22;;;10.19;95.48
7182;BME280;3632;42.724;23.298;2023-04-30T01:30:28;94997.63;;;9.69;94.86
7182;BME280;3632;42.724;23.298;2023-04-30T01:32:55;94494.09;;;6.43;94.18
7182;BME280;3632;42.724;23.298;2023-04-30T01:35:32;95092.25;;;10.17;95.01
7182;BME280;3632;42.724;23.298;2023-04-30T01:38:13;95090.94;;;10.11;95.87
7182;BME280;3632;42.724;23.298;2023-04-30T01:40:49;95087.22;;;10.26;95.34
7182;BME280;3632;42.724;23.298;2023-04-30T01:43:31;95080.81;;;10.32;95.32
7182;BME280;3632;42.724;23.298;2023-04-30T01:46:08;95028.81;;;9.82;95.54
7182;BME280;3632;42.724;23.298;2023-04-30T01:48:43;95082.34;;;10.34;94.98
7182;BME280;3632;42.724;23.298;2023-04-30T01:51:18;95086.09;;;10.40;95.35
7182;BME280;3632;42.724;23.298;2023-04-30T01:53:46;95089.91;;;10.45;95.34
7182;BME280;3632;42.724;23.298;2023-04-30T01:56:17;95030.41;;;10.15;94.48
7182;BME280;3632;42.724;23.298;2023-04-30T01:58:48;95025.00;;;10.08;94.18
7182;BME280;3632;42.724;23.298;2023-04-30T02:01:26;95086.81;;;10.42;94.36
7182;BME280;3632;42.724;23.298;2023-04-30T02:03:53;95089.78;;;10.47;93.83
7182;BME280;3632;42.724;23.298;2023-04-30T02:06:20;95087.53;;;10.53;93.40
7182;BME280;3632;42.724;23.298;2023-04-30T02:08:46;95086.34;;;10.37;93.97
7182;BME280;3632;42.724;23.298;2023-04-30T02:11:13;94973.97;;;9.57;94.08
7182;BME280;3632;42.724;23.298;2023-04-30T02:13:40;95128.75;;;10.38;93.95
7182;BME280;3632;42.724;23.298;2023-04-30T02:16:10;95114.91;;;10.20;93.91
7182;BME280;3632;42.724;23.298;2023-04-30T02:18:36;95093.63;;;10.41;94.21
7182;BME280;3632;42.724;23.298;2023-04-30T02:21:03;95021.53;;;10.09;93.69
7182;BME280;3632;42.724;23.298;2023-04-30T02:23:30;95082.72;;;10.50;93.90
7182;BME280;3632;42.724;23.298;2023-04-30T02:25:56;95078.09;;;10.44;93.47
7182;BME280;3632;42.724;23.298;2023-04-30T02:28:23;95079.91;;;10.33;92.86
7182;BME280;3632;42.724;23.298;2023-04-30T02:30:50;94731.66;;;8.07;93.09
7182;BME280;3632;42.724;23.298;2023-04-30T02:33:18;95081.25;;;10.16;94.23
7182;BME280;3632;42.724;23.298;2023-04-30T02:35:45;95085.16;;;10.20;94.53
7182;BME280;3632;42.724;23.298;2023-04-30T02:38:11;95086.94;;;10.08;94.83
7182;BME280;3632;42.724;23.298;2023-04-30T02:40:40;95083.63;;;10.29;93.87
7182;BME280;3632;42.724;23.298;2023-04-30T02:43:07;94767.59;;;8.45;92.73
7182;BME280;3632;42.724;23.298;2023-04-30T02:45:33;95079.66;;;10.57;92.71
7182;BME280;3632;42.724;23.298;2023-04-30T02:48:00;95082.59;;;10.73;92.79
7182;BME280;3632;42.724;23.298;2023-04-30T02:50:28;95085.63;;;10.67;92.95
7182;BME280;3632;42.724;23.298;2023-04-30T02:52:55;94889.81;;;9.49;92.73
7182;BME280;3632;42.724;23.298;2023-04-30T02:55:22;95088.72;;;10.70;92.66
7182;BME280;3632;42.724;23.298;2023-04-30T02:57:48;95088.91;;;10.58;93.25
7182;BME280;3632;42.724;23.298;2023-04-30T03:00:15;95113.09;;;10.42;93.31
7182;BME280;3632;42.724;23.298;2023-04-30T03:02:42;95038.16;;;9.92;94.93
7182;BME280;3632;42.724;23.298;2023-04-30T03:05:09;94387.53;;;5.80;95.19
7182;BME280;3632;42.724;23.298;2023-04-30T03:07:38;95097.47;;;10.04;96.88
7182;BME280;3632;42.724;23.298;2023-04-30T03:10:06;95100.47;;;9.98;97.63
7182;BME280;3632;42.724;23.298;2023-04-30T03:12:32;95101.63;;;10.05;97.28
7182;BME280;3632;42.724;23.298;2023-04-30T03:14:59;94718.47;;;7.59;97.20
7182;BME280;3632;42.724;23.298;2023-04-30T03:17:26;95103.06;;;9.87;97.66
7182;BME280;3632;42.724;23.298;2023-04-30T03:19:52;95088.13;;;9.17;97.86
7182;BME280;3632;42.724;23.298;2023-04-30T03:22:19;95103.19;;;9.85;97.85
7182;BME280;3632;42.724;23.298;2023-04-30T03:24:49;95028.00;;;9.49;97.26
7182;BME280;3632;42.724;23.298;2023-04-30T03:27:16;95113.22;;;9.98;96.94
7182;BME280;3632;42.724;23.298;2023-04-30T03:29:42;95105.31;;;10.12;96.41
7182;BME280;3632;42.724;23.298;2023-04-30T03:32:09;95101.94;;;10.12;95.41
7182;BME280;3632;42.724;23.298;2023-04-30T03:34:36;95107.28;;;10.08;95.70
7182;BME280;3632;42.724;23.298;2023-04-30T03:37:03;95114.81;;;10.21;96.03
7182;BME280;3632;42.724;23.298;2023-04-30T03:39:30;95146.00;;;10.34;95.33
7182;BME280;3632;42.724;23.298;2023-04-30T03:41:58;95119.38;;;10.38;92.56
7182;BME280;3632;42.724;23.298;2023-04-30T03:44:26;95059.09;;;9.85;93.44
7182;BME280;3632;42.724;23.298;2023-04-30T03:46:52;94990.50;;;9.51;92.36
7182;BME280;3632;42.724;23.298;2023-04-30T03:49:19;95126.47;;;10.56;91.77
7182;BME280;3632;42.724;23.298;2023-04-30T03:51:46;95137.97;;;10.71;88.99
7182;BME280;3632;42.724;23.298;2023-04-30T03:54:13;94957.34;;;9.74;86.86
7182;BME280;3632;42.724;23.298;2023-04-30T03:56:39;94991.19;;;10.06;85.53
7182;BME280;3632;42.724;23.298;2023-04-30T03:59:07;94610.09;;;7.72;84.48
7182;BME280;3632;42.724;23.298;2023-04-30T04:01:34;95165.38;;;10.26;84.29
7182;BME280;3632;42.724;23.298;2023-04-30T04:04:01;95145.91;;;10.57;86.27
7182;BME280;3632;42.724;23.298;2023-04-30T04:06:28;95069.94;;;9.66;86.80
7182;BME280;3632;42.724;23.298;2023-04-30T04:08:55;95078.03;;;9.71;88.79
7182;BME280;3632;42.724;23.298;2023-04-30T04:11:21;95146.88;;;10.44;88.44
7182;BME280;3632;42.724;23.298;2023-04-30T04:13:48;95111.72;;;10.38;87.32
7182;BME280;3632;42.724;23.298;2023-04-30T04:16:16;95197.97;;;10.75;86.61
7182;BME280;3632;42.724;23.298;2023-04-30T04:18:43;94877.03;;;8.09;85.35
7182;BME280;3632;42.724;23.298;2023-04-30T04:21:10;95151.06;;;10.87;84.57
7182;BME280;3632;42.724;23.298;2023-04-30T04:23:37;95144.00;;;10.90;84.24
7182;BME280;3632;42.724;23.298;2023-04-30T04:26:03;95083.59;;;10.61;83.53
7182;BME280;3632;42.724;23.298;2023-04-30T04:28:30;95240.47;;;11.06;83.66
7182;BME280;3632;42.724;23.298;2023-04-30T04:30:57;94756.41;;;8.48;83.32
7182;BME280;3632;42.724;23.298;2023-04-30T04:33:25;95017.31;;;10.19;83.45
7182;BME280;3632;42.724;23.298;2023-04-30T04:35:53;94946.19;;;9.86;83.12
7182;BME280;3632;42.724;23.298;2023-04-30T04:38:22;95153.41;;;11.20;83.67
7182;BME280;3632;42.724;23.298;2023-04-30T04:40:52;94956.34;;;9.65;85.33
7182;BME280;3632;42.724;23.298;2023-04-30T04:43:19;95168.63;;;11.01;84.64
7182;BME280;3632;42.724;23.298;2023-04-30T04:45:46;95160.53;;;10.96;83.59
7182;BME280;3632;42.724;23.298;2023-04-30T04:48:14;95167.75;;;11.12;84.40
7182;BME280;3632;42.724;23.298;2023-04-30T04:50:42;95155.47;;;11.26;83.18
7182;BME280;3632;42.724;23.298;2023-04-30T04:53:08;95158.94;;;11.25;84.19
7182;BME280;3632;42.724;23.298;2023-04-30T04:55:35;95167.47;;;11.35;83.60
7182;BME280;3632;42.724;23.298;2023-04-30T04:58:02;95187.13;;;11.44;82.51
7182;BME280;3632;42.724;23.298;2023-04-30T05:00:29;95172.09;;;11.51;81.56
7182;BME280;3632;42.724;23.298;2023-04-30T05:02:55;95174.97;;;11.58;81.44
7182;BME280;3632;42.724;23.298;2023-04-30T05:05:22;95130.56;;;11.39;81.51
7182;BME280;3632;42.724;23.298;2023-04-30T05:07:50;95125.94;;;11.24;82.30
7182;BME280;3632;42.724;23.298;2023-04-30T05:10:19;95171.22;;;11.62;82.06
7182;BME280;3632;42.724;23.298;2023-04-30T05:12:46;95168.69;;;11.71;81.46
7182;BME280;3632;42.724;23.298;2023-04-30T05:15:12;95193.53;;;11.69;80.98
7182;BME280;3632;42.724;23.298;2023-04-30T05:17:39;95168.47;;;11.84;80.52
7182;BME280;3632;42.724;23.298;2023-04-30T05:20:07;95173.84;;;11.81;81.35
7182;BME280;3632;42.724;23.298;2023-04-30T05:22:34;95121.59;;;11.45;80.75
7182;BME280;3632;42.724;23.298;2023-04-30T05:25:02;95172.31;;;11.69;80.57
7182;BME280;3632;42.724;23.298;2023-04-30T05:27:29;95177.78;;;11.64;82.74
7182;BME280;3632;42.724;23.298;2023-04-30T05:29:56;95181.00;;;11.87;82.46
7182;BME280;3632;42.724;23.298;2023-04-30T05:32:23;95175.38;;;12.03;81.47
7182;BME280;3632;42.724;23.298;2023-04-30T05:34:50;95168.31;;;12.25;80.24
7182;BME280;3632;42.724;23.298;2023-04-30T05:37:17;95178.00;;;12.31;79.59
7182;BME280;3632;42.724;23.298;2023-04-30T05:39:44;95176.09;;;12.14;79.67
7182;BME280;3632;42.724;23.298;2023-04-30T05:42:13;95171.22;;;12.02;79.88
7182;BME280;3632;42.724;23.298;2023-04-30T05:44:40;95167.22;;;12.09;78.65
7182;BME280;3632;42.724;23.298;2023-04-30T05:47:07;95172.16;;;11.61;80.79
7182;BME280;3632;42.724;23.298;2023-04-30T05:49:33;95175.56;;;11.40;83.10
7182;BME280;3632;42.724;23.298;2023-04-30T05:52:00;95174.19;;;11.36;84.56
7182;BME280;3632;42.724;23.298;2023-04-30T05:54:28;95174.59;;;11.41;83.81
7182;BME280;3632;42.724;23.298;2023-04-30T05:56:54;95178.22;;;11.39;83.09
7182;BME280;3632;42.724;23.298;2023-04-30T05:59:22;95173.16;;;11.18;83.88
7182;BME280;3632;42.724;23.298;2023-04-30T06:01:50;95165.22;;;11.12;85.81
7182;BME280;3632;42.724;23.298;2023-04-30T06:04:17;95070.50;;;10.75;86.99
7182;BME280;3632;42.724;23.298;2023-04-30T06:06:44;95189.16;;;11.81;84.54
7182;BME280;3632;42.724;23.298;2023-04-30T06:09:11;95162.28;;;11.77;82.59
7182;BME280;3632;42.724;23.298;2023-04-30T06:11:37;95191.94;;;12.18;82.05
7182;BME280;3632;42.724;23.298;2023-04-30T06:14:04;94656.94;;;9.05;80.17
7182;BME280;3632;42.724;23.298;2023-04-30T06:16:33;95033.19;;;11.04;78.75
7182;BME280;3632;42.724;23.298;2023-04-30T06:18:59;94764.16;;;10.31;78.07
7182;BME280;3632;42.724;23.298;2023-04-30T06:21:26;95178.13;;;13.07;77.55
7182;BME280;3632;42.724;23.298;2023-04-30T06:23:53;95097.41;;;12.66;76.51
7182;BME280;3632;42.724;23.298;2023-04-30T06:26:20;95203.81;;;13.34;76.57
7182;BME280;3632;42.724;23.298;2023-04-30T06:28:46;95137.75;;;13.10;75.72
7182;BME280;3632;42.724;23.298;2023-04-30T06:31:13;95195.28;;;13.53;75.25
7182;BME280;3632;42.724;23.298;2023-04-30T06:33:41;95195.66;;;13.58;75.78
7182;BME280;3632;42.724;23.298;2023-04-30T06:36:08;94535.63;;;9.07;75.90
7182;BME280;3632;42.724;23.298;2023-04-30T06:38:35;95113.97;;;12.52;77.63
7182;BME280;3632;42.724;23.298;2023-04-30T06:41:02;95194.69;;;13.12;77.68
7182;BME280;3632;42.724;23.298;2023-04-30T06:43:28;94655.00;;;9.88;75.95
7182;BME280;3632;42.724;23.298;2023-04-30T06:45:55;95138.94;;;13.16;76.21
7182;BME280;3632;42.724;23.298;2023-04-30T06:48:22;95132.66;;;13.38;75.88
7182;BME280;3632;42.724;23.298;2023-04-30T06:50:50;94659.06;;;10.48;74.30
7182;BME280;3632;42.724;23.298;2023-04-30T06:53:17;95048.41;;;13.26;74.56
7182;BME280;3632;42.724;23.298;2023-04-30T06:55:44;95185.47;;;14.30;74.36
7182;BME280;3632;42.724;23.298;2023-04-30T06:58:12;95204.28;;;14.21;72.34
7182;BME280;3632;42.724;23.298;2023-04-30T07:00:39;94834.72;;;12.13;72.89
7182;BME280;3632;42.724;23.298;2023-04-30T07:03:07;95177.69;;;14.49;72.38
7182;BME280;3632;42.724;23.298;2023-04-30T07:05:34;94871.59;;;12.38;72.08
7182;BME280;3632;42.724;23.298;2023-04-30T07:08:03;95135.59;;;14.25;72.64
7182;BME280;3632;42.724;23.298;2023-04-30T07:10:31;95100.53;;;14.25;70.60
7182;BME280;3632;42.724;23.298;2023-04-30T07:12:57;94752.25;;;11.37;68.66
7182;BME280;3632;42.724;23.298;2023-04-30T07:15:24;95182.13;;;15.00;67.68
7182;BME280;3632;42.724;23.298;2023-04-30T07:17:51;95056.78;;;13.46;67.52
7182;BME280;3632;42.724;23.298;2023-04-30T07:20:18;95180.88;;;15.04;67.18
7182;BME280;3632;42.724;23.298;2023-04-30T07:22:45;95188.22;;;14.99;67.22
7182;BME280;3632;42.724;23.298;2023-04-30T07:25:13;95183.63;;;15.11;66.74
7182;BME280;3632;42.724;23.298;2023-04-30T07:27:40;95149.53;;;14.93;66.16
7182;BME280;3632;42.724;23.298;2023-04-30T07:30:08;95098.91;;;14.59;66.33
7182;BME280;3632;42.724;23.298;2023-04-30T07:32:35;94913.94;;;13.32;65.25
7182;BME280;3632;42.724;23.298;2023-04-30T07:35:03;95140.09;;;14.58;65.37
7182;BME280;3632;42.724;23.298;2023-04-30T07:37:30;95190.88;;;15.16;64.90
7182;BME280;3632;42.724;23.298;2023-04-30T07:39:57;95301.78;;;15.37;65.26
7182;BME280;3632;42.724;23.298;2023-04-30T07:42:26;95094.31;;;14.89;64.71
7182;BME280;3632;42.724;23.298;2023-04-30T07:44:52;95191.34;;;15.37;64.50
7182;BME280;3632;42.724;23.298;2023-04-30T07:47:19;95189.94;;;15.60;64.34
7182;BME280;3632;42.724;23.298;2023-04-30T07:49:46;95186.50;;;15.77;64.17
7182;BME280;3632;42.724;23.298;2023-04-30T07:52:13;95156.19;;;15.89;64.01
7182;BME280;3632;42.724;23.298;2023-04-30T07:54:40;95183.13;;;16.27;63.74
7182;BME280;3632;42.724;23.298;2023-04-30T07:57:07;94502.94;;;11.93;60.90
7182;BME280;3632;42.724;23.298;2023-04-30T07:59:36;95178.31;;;16.24;60.04
7182;BME280;3632;42.724;23.298;2023-04-30T08:02:02;95114.19;;;15.72;60.35
7182;BME280;3632;42.724;23.298;2023-04-30T08:04:29;95176.38;;;16.26;60.46
7182;BME280;3632;42.724;23.298;2023-04-30T08:06:56;95099.59;;;15.13;61.40
7182;BME280;3632;42.724;23.298;2023-04-30T08:09:23;95191.50;;;16.29;60.38
7182;BME280;3632;42.724;23.298;2023-04-30T08:11:50;95310.63;;;16.29;60.97
7182;BME280;3632;42.724;23.298;2023-04-30T08:14:17;94968.38;;;14.82;61.15
7182;BME280;3632;42.724;23.298;2023-04-30T08:16:46;95198.69;;;16.17;61.55
7182;BME280;3632;42.724;23.298;2023-04-30T08:19:12;95160.53;;;15.96;61.46
7182;BME280;3632;42.724;23.298;2023-04-30T08:21:39;95139.91;;;15.80;62.17
7182;BME280;3632;42.724;23.298;2023-04-30T08:24:06;94783.28;;;13.42;62.10
7182;BME280;3632;42.724;23.298;2023-04-30T08:26:33;95207.19;;;16.18;60.63
7182;BME280;3632;42.724;23.298;2023-04-30T08:28:59;95198.22;;;16.22;60.61
7182;BME280;3632;42.724;23.298;2023-04-30T08:31:26;94906.03;;;14.30;60.02
7182;BME280;3632;42.724;23.298;2023-04-30T08:33:54;95190.81;;;16.19;58.88
7182;BME280;3632;42.724;23.298;2023-04-30T08:36:21;95191.06;;;16.41;58.41
7182;BME280;3632;42.724;23.298;2023-04-30T08:38:48;95197.19;;;16.57;57.34
7182;BME280;3632;42.724;23.298;2023-04-30T08:41:15;95195.47;;;16.73;56.74
7182;BME280;3632;42.724;23.298;2023-04-30T08:43:42;95187.13;;;16.87;56.25
7182;BME280;3632;42.724;23.298;2023-04-30T08:46:10;95186.94;;;16.89;55.22
7182;BME280;3632;42.724;23.298;2023-04-30T08:48:39;95181.94;;;17.20;54.70
7182;BME280;3632;42.724;23.298;2023-04-30T08:51:08;95178.38;;;17.61;53.78
7182;BME280;3632;42.724;23.298;2023-04-30T08:53:35;95170.13;;;17.82;52.55
7182;BME280;3632;42.724;23.298;2023-04-30T08:56:03;95114.47;;;17.41;52.44
7182;BME280;3632;42.724;23.298;2023-04-30T08:58:30;95050.13;;;17.16;52.31
7182;BME280;3632;42.724;23.298;2023-04-30T09:00:57;95028.59;;;17.09;51.97
7182;BME280;3632;42.724;23.298;2023-04-30T09:03:24;95212.44;;;17.96;53.06
7182;BME280;3632;42.724;23.298;2023-04-30T09:05:53;95065.72;;;17.31;51.97
7182;BME280;3632;42.724;23.298;2023-04-30T09:08:41;95157.78;;;18.31;51.16
7182;BME280;3632;42.724;23.298;2023-04-30T09:11:21;95140.03;;;18.59;51.94
7182;BME280;3632;42.724;23.298;2023-04-30T09:13:49;95154.56;;;18.60;49.59
7182;BME280;3632;42.724;23.298;2023-04-30T09:16:17;95172.16;;;17.95;49.47
7182;BME280;3632;42.724;23.298;2023-04-30T09:18:44;94773.38;;;15.95;49.76
7182;BME280;3632;42.724;23.298;2023-04-30T09:21:30;95136.22;;;18.24;50.32
7182;BME280;3632;42.724;23.298;2023-04-30T09:23:59;95141.13;;;18.11;50.81
7182;BME280;3632;42.724;23.298;2023-04-30T09:26:31;95130.41;;;18.22;50.51
7182;BME280;3632;42.724;23.298;2023-04-30T09:28:59;95002.91;;;17.32;50.42
7182;BME280;3632;42.724;23.298;2023-04-30T09:31:32;95133.81;;;18.22;50.05
7182;BME280;3632;42.724;23.298;2023-04-30T09:33:59;95150.00;;;18.39;49.65
7182;BME280;3632;42.724;23.298;2023-04-30T09:36:26;94588.34;;;15.01;49.47
7182;BME280;3632;42.724;23.298;2023-04-30T09:38:53;94962.19;;;16.97;50.12
7182;BME280;3632;42.724;23.298;2023-04-30T09:41:27;95073.72;;;18.14;49.43
7182;BME280;3632;42.724;23.298;2023-04-30T09:43:55;95024.13;;;18.04;49.16
7182;BME280;3632;42.724;23.298;2023-04-30T09:46:29;95177.00;;;18.82;49.27
7182;BME280;3632;42.724;23.298;2023-04-30T09:48:57;95067.00;;;18.50;49.20
7182;BME280;3632;42.724;23.298;2023-04-30T09:51:24;94774.06;;;17.21;48.40
7182;BME280;3632;42.724;23.298;2023-04-30T09:53:51;95105.81;;;19.54;47.89
7182;BME280;3632;42.724;23.298;2023-04-30T09:56:20;95108.19;;;19.85;47.10
7182;BME280;3632;42.724;23.298;2023-04-30T09:58:51;95100.91;;;20.10;45.21
7182;BME280;3632;42.724;23.298;2023-04-30T10:01:19;94923.59;;;19.00;45.00
7182;BME280;3632;42.724;23.298;2023-04-30T10:03:46;94904.44;;;19.09;44.98
7182;BME280;3632;42.724;23.298;2023-04-30T10:06:15;94999.31;;;19.80;45.53
7182;BME280;3632;42.724;23.298;2023-04-30T10:08:55;95122.97;;;20.63;46.80
7182;BME280;3632;42.724;23.298;2023-04-30T10:11:27;94928.94;;;18.98;44.05
7182;BME280;3632;42.724;23.298;2023-04-30T10:14:00;95117.56;;;20.22;45.86
7182;BME280;3632;42.724;23.298;2023-04-30T10:16:36;95211.34;;;19.51;47.18
7182;BME280;3632;42.724;23.298;2023-04-30T10:19:12;95123.53;;;18.68;48.72
7182;BME280;3632;42.724;23.298;2023-04-30T10:21:41;94963.66;;;16.83;53.67
7182;BME280;3632;42.724;23.298;2023-04-30T10:24:12;95138.84;;;17.14;63.90
7182;BME280;3632;42.724;23.298;2023-04-30T10:26:39;94637.75;;;12.52;69.04
7182;BME280;3632;42.724;23.298;2023-04-30T10:29:09;95166.72;;;16.20;71.56
7182;BME280;3632;42.724;23.298;2023-04-30T10:31:36;95008.84;;;14.88;71.70
7182;BME280;3632;42.724;23.298;2023-04-30T10:34:14;95157.56;;;15.75;77.68
7182;BME280;3632;42.724;23.298;2023-04-30T10:36:45;95150.34;;;15.79;83.51
7182;BME280;3632;42.724;23.298;2023-04-30T10:39:14;95145.66;;;16.16;82.53
7182;BME280;3632;42.724;23.298;2023-04-30T10:41:44;95141.38;;;16.49;84.27
7182;BME280;3632;42.724;23.298;2023-04-30T10:44:20;95074.69;;;16.72;84.55
7182;BME280;3632;42.724;23.298;2023-04-30T10:46:48;95130.50;;;18.06;81.58
7182;BME280;3632;42.724;23.298;2023-04-30T10:49:23;95076.97;;;18.61;76.87
7182;BME280;3632;42.724;23.298;2023-04-30T10:51:50;95063.50;;;19.18;75.21
7182;BME280;3632;42.724;23.298;2023-04-30T10:54:24;95127.44;;;20.33;72.98
7182;BME280;3632;42.724;23.298;2023-04-30T10:56:51;94920.03;;;19.51;63.90
7182;BME280;3632;42.724;23.298;2023-04-30T10:59:22;95073.72;;;20.35;65.74
7182;BME280;3632;42.724;23.298;2023-04-30T11:01:56;95113.94;;;21.23;52.70
7182;BME280;3632;42.724;23.298;2023-04-30T11:04:23;94878.88;;;18.99;57.71
7182;BME280;3632;42.724;23.298;2023-04-30T11:06:59;95022.31;;;20.11;57.13
7182;BME280;3632;42.724;23.298;2023-04-30T11:09:35;94737.06;;;18.83;55.72
7182;BME280;3632;42.724;23.298;2023-04-30T11:12:04;94800.44;;;19.22;52.43
7182;BME280;3632;42.724;23.298;2023-04-30T11:14:40;95184.97;;;21.07;53.40
7182;BME280;3632;42.724;23.298;2023-04-30T11:17:09;94892.19;;;19.96;51.84
7182;BME280;3632;42.724;23.298;2023-04-30T11:19:45;95144.09;;;21.09;51.34
7182;BME280;3632;42.724;23.298;2023-04-30T11:22:18;94478.38;;;17.10;55.26
7182;BME280;3632;42.724;23.298;2023-04-30T11:24:49;94629.06;;;17.50;50.24
7182;BME280;3632;42.724;23.298;2023-04-30T11:27:19;94858.13;;;19.43;54.25
7182;BME280;3632;42.724;23.298;2023-04-30T11:29:49;94994.16;;;19.66;55.84
7182;BME280;3632;42.724;23.298;2023-04-30T11:32:20;94746.47;;;18.91;59.69
7182;BME280;3632;42.724;23.298;2023-04-30T11:34:49;94568.09;;;18.22;57.34
7182;BME280;3632;42.724;23.298;2023-04-30T11:37:19;95118.22;;;22.12;58.54
7182;BME280;3632;42.724;23.298;2023-04-30T11:39:49;95000.38;;;22.07;56.89
7182;BME280;3632;42.724;23.298;2023-04-30T11:42:17;94877.78;;;21.72;57.24
7182;BME280;3632;42.724;23.298;2023-04-30T11:44:44;94649.31;;;20.62;53.66
7182;BME280;3632;42.724;23.298;2023-04-30T11:47:13;94582.00;;;20.62;52.84
7182;BME280;3632;42.724;23.298;2023-04-30T11:49:41;94760.25;;;21.25;51.69
7182;BME280;3632;42.724;23.298;2023-04-30T11:52:12;94871.22;;;22.15;53.20
7182;BME280;3632;42.724;23.298;2023-04-30T11:54:39;94750.88;;;21.37;51.53
7182;BME280;3632;42.724;23.298;2023-04-30T11:57:06;95042.97;;;22.25;52.96
7182;BME280;3632;42.724;23.298;2023-04-30T11:59:39;95070.78;;;21.91;54.41
7182;BME280;3632;42.724;23.298;2023-04-30T12:02:08;95093.84;;;21.66;52.63
7182;BME280;3632;42.724;23.298;2023-04-30T12:04:37;94942.13;;;20.39;54.44
7182;BME280;3632;42.724;23.298;2023-04-30T12:07:06;94663.72;;;17.47;54.01
7182;BME280;3632;42.724;23.298;2023-04-30T12:09:52;95092.09;;;20.40;55.84
7182;BME280;3632;42.724;23.298;2023-04-30T12:12:29;94997.03;;;19.27;54.93
7182;BME280;3632;42.724;23.298;2023-04-30T12:15:12;94483.63;;;15.67;58.83
7182;BME280;3632;42.724;23.298;2023-04-30T12:17:40;94731.88;;;16.76;57.34
7182;BME280;3632;42.724;23.298;2023-04-30T12:20:10;95133.84;;;18.45;60.17
7182;BME280;3632;42.724;23.298;2023-04-30T12:22:37;95261.75;;;19.01;63.23
7182;BME280;3632;42.724;23.298;2023-04-30T12:25:06;95072.34;;;18.49;62.63
7182;BME280;3632;42.724;23.298;2023-04-30T12:27:35;94744.34;;;16.26;64.78
7182;BME280;3632;42.724;23.298;2023-04-30T12:30:06;94723.78;;;15.87;64.36
7182;BME280;3632;42.724;23.298;2023-04-30T12:32:40;94851.03;;;17.16;66.44
7182;BME280;3632;42.724;23.298;2023-04-30T12:35:13;95104.50;;;19.21;67.37
7182;BME280;3632;42.724;23.298;2023-04-30T12:37:42;95076.97;;;19.13;64.31
7182;BME280;3632;42.724;23.298;2023-04-30T12:40:12;94810.97;;;16.90;62.86
7182;BME280;3632;42.724;23.298;2023-04-30T12:42:46;95114.16;;;19.56;66.00
7182;BME280;3632;42.724;23.298;2023-04-30T12:45:43;94910.53;;;18.35;60.86
7182;BME280;3632;42.724;23.298;2023-04-30T12:48:11;95112.88;;;19.08;60.87
7182;BME280;3632;42.724;23.298;2023-04-30T12:50:41;95066.47;;;19.00;62.35
7182;BME280;3632;42.724;23.298;2023-04-30T12:53:09;95119.56;;;19.17;62.62
7182;BME280;3632;42.724;23.298;2023-04-30T12:55:40;94788.69;;;17.06;65.07
7182;BME280;3632;42.724;23.298;2023-04-30T12:58:08;95073.88;;;18.81;61.44
7182;BME280;3632;42.724;23.298;2023-04-30T13:00:47;94923.84;;;17.02;59.00
7182;BME280;3632;42.724;23.298;2023-04-30T13:03:16;94845.88;;;17.16;58.93
7182;BME280;3632;42.724;23.298;2023-04-30T13:05:48;95111.41;;;18.91;61.49
7182;BME280;3632;42.724;23.298;2023-04-30T13:08:16;95097.31;;;18.79;58.12
7182;BME280;3632;42.724;23.298;2023-04-30T13:10:44;95123.50;;;18.45;58.91
7182;BME280;3632;42.724;23.298;2023-04-30T13:13:11;95088.06;;;18.39;59.24
7182;BME280;3632;42.724;23.298;2023-04-30T13:15:38;95083.63;;;18.25;59.58
7182;BME280;3632;42.724;23.298;2023-04-30T13:18:06;95067.41;;;18.16;60.21
7182;BME280;3632;42.724;23.298;2023-04-30T13:20:34;95079.97;;;18.19;62.18